»·PEaware :: AAL505 KSEA-KBOI

AAL505 :: KSEA-KBOI

FLIGHT INFORMATION

Flight Status: Arrived
Operator:
American Airlines
More flights by this operator :: More flights under this callsign
Pilot: Jeremy D. (22782)
Aircraft: BOEING 737-800
(B738)
More flights by this aircraft type
Origin: KSEA Seattle-Tacoma Intl
United States
Destination: KBOI Boise Air Terminal/Gowen
United States
More flights between these airports :: More routes between these airports
Route: SUMMA1 SUMMA BKE HOSTS PARMO3
File this flight plan on PilotEdge
Remarks: RMK / SIMBRIEF
Altitude:
(Current/Filed)
35,000ft
Speed:
(Current/Filed)
458kts
Departed: 15-May-19 06:28 PM
Arrived: 15-May-19 07:39 PM
Distance/Time
Traveled:
346nm/1:10
Distance/Time
To Go:
Arrived

Flight Plot

Page will automatically refresh every two minutes.


Map Options




Map Legend


Flown Route
Filed Route
Departure Airport
Arrival Airport
Navaid (VOR, NDB)
Fix

Horizontal Profiles

Position Reports

Time Latitude Longitude Heading Altitude Ground
Speed
15-May-19 18:03 47.445280 -122.304684 90 441ft 0kts
15-May-19 18:04 47.445280 -122.304684 90 441ft 0kts
15-May-19 18:05 47.445280 -122.304684 90 441ft 0kts
15-May-19 18:06 47.445280 -122.304684 90 441ft 0kts
15-May-19 18:07 47.445280 -122.304684 90 441ft 0kts
15-May-19 18:08 47.445280 -122.304684 90 441ft 0kts
15-May-19 18:09 47.445280 -122.304684 90 441ft 0kts
15-May-19 18:10 47.445280 -122.304684 90 441ft 0kts
15-May-19 18:11 47.445280 -122.304684 90 441ft 0kts
15-May-19 18:12 47.445280 -122.304684 90 441ft 0kts
15-May-19 18:13 47.445280 -122.304684 90 441ft 0kts
15-May-19 18:14 47.445280 -122.304684 90 441ft 0kts
15-May-19 18:15 47.445280 -122.304684 90 441ft 0kts
15-May-19 18:16 47.445280 -122.304684 90 441ft 0kts
15-May-19 18:18 47.445281 -122.304970 90 441ft 2kts
15-May-19 18:19 47.445037 -122.305443 353 441ft 1kts
15-May-19 18:20 47.444990 -122.305438 359 440ft 0kts
15-May-19 18:21 47.445081 -122.305440 359 441ft 5kts
15-May-19 18:22 47.448243 -122.306125 345 440ft 16kts
15-May-19 18:23 47.452181 -122.306263 0 441ft 18kts
15-May-19 18:24 47.457360 -122.306227 1 440ft 21kts
15-May-19 18:25 47.462971 -122.306218 357 441ft 19kts
15-May-19 18:26 47.463609 -122.306397 306 440ft 0kts
15-May-19 18:27 47.463703 -122.306860 269 440ft 14kts
15-May-19 18:28 47.439150 -122.307864 180 772ft 185kts
15-May-19 18:29 47.391121 -122.318811 177 2890ft 215kts
15-May-19 18:30 47.331407 -122.311065 176 5054ft 264kts
15-May-19 18:31 47.262138 -122.305379 178 7906ft 287kts
15-May-19 18:32 47.189463 -122.279152 157 10606ft 303kts
15-May-19 18:33 47.110311 -122.238476 158 13440ft 316kts
15-May-19 18:34 47.032371 -122.198579 158 16067ft 324kts
15-May-19 18:35 46.947249 -122.155137 160 18678ft 330kts
15-May-19 18:36 46.863063 -122.112314 161 20907ft 339kts
15-May-19 18:37 46.777238 -122.068796 161 22959ft 348kts
15-May-19 18:38 46.688638 -122.017964 156 24877ft 357kts
15-May-19 18:39 46.602017 -121.947920 135 26603ft 372kts
15-May-19 18:39 46.554701 -121.841390 126 27952ft 384kts
15-May-19 18:41 46.486620 -121.687159 127 29682ft 393kts
15-May-19 18:42 46.428635 -121.550744 122 31175ft 401kts
15-May-19 18:42 46.385042 -121.433275 125 32624ft 394kts
15-May-19 18:44 46.324051 -121.282079 126 34363ft 387kts
15-May-19 18:44 46.278679 -121.169498 126 34782ft 402kts
15-May-19 18:45 46.222366 -121.029558 126 34790ft 408kts
15-May-19 18:46 46.165122 -120.886664 125 34790ft 412kts
15-May-19 18:47 46.107593 -120.743013 125 34794ft 410kts
15-May-19 18:49 46.040862 -120.575582 125 34797ft 412kts
15-May-19 18:49 45.993389 -120.456256 125 34797ft 413kts
15-May-19 18:50 45.936520 -120.313630 125 34798ft 411kts
15-May-19 18:51 45.878058 -120.171820 126 34805ft 411kts
15-May-19 18:52 45.819448 -120.031037 126 34792ft 411kts
15-May-19 18:53 45.760726 -119.889819 126 34781ft 411kts
15-May-19 18:54 45.702233 -119.749037 126 34783ft 412kts
15-May-19 18:55 45.643738 -119.608125 126 34782ft 411kts
15-May-19 18:56 45.585401 -119.467085 126 34778ft 410kts
15-May-19 18:57 45.527033 -119.326213 126 34707ft 412kts
15-May-19 18:58 45.468146 -119.186004 127 33695ft 414kts
15-May-19 18:59 45.408391 -119.048185 127 32705ft 415kts
15-May-19 19:00 45.346749 -118.906285 127 31690ft 426kts
15-May-19 19:01 45.283931 -118.762332 126 30685ft 433kts
15-May-19 19:02 45.218930 -118.618232 127 29667ft 434kts
15-May-19 19:03 45.152520 -118.474333 127 28812ft 435kts
15-May-19 19:04 45.087117 -118.333034 128 28811ft 435kts
15-May-19 19:05 45.021765 -118.192848 128 28818ft 428kts
15-May-19 19:06 44.956437 -118.054480 127 28837ft 421kts
15-May-19 19:07 44.892135 -117.919549 127 28846ft 421kts
15-May-19 19:08 44.810252 -117.816428 154 28892ft 385kts
15-May-19 19:09 44.708151 -117.771784 164 28842ft 385kts
15-May-19 19:10 44.604581 -117.731982 164 28084ft 388kts
15-May-19 19:11 44.501586 -117.696880 166 25675ft 375kts
15-May-19 19:12 44.402214 -117.664419 165 23248ft 355kts
15-May-19 19:13 44.310614 -117.634484 165 20813ft 324kts
15-May-19 19:14 44.228408 -117.607607 165 18462ft 306kts
15-May-19 19:15 44.147380 -117.581112 165 16035ft 295kts
15-May-19 19:16 44.068774 -117.555408 165 13776ft 281kts
15-May-19 19:17 43.998263 -117.520110 142 12547ft 271kts
15-May-19 19:18 43.956033 -117.434713 115 11361ft 272kts
15-May-19 19:19 43.925767 -117.338638 117 10550ft 273kts
15-May-19 19:20 43.894833 -117.241733 117 9735ft 274kts
15-May-19 19:21 43.863958 -117.144683 116 8942ft 275kts
15-May-19 19:22 43.833069 -117.047328 117 8263ft 275kts
15-May-19 19:23 43.801625 -116.950522 118 8252ft 279kts
15-May-19 19:24 43.770883 -116.855799 119 8245ft 259kts
15-May-19 19:25 43.732607 -116.773250 135 8195ft 253kts
15-May-19 19:26 43.687934 -116.697364 133 7831ft 255kts
15-May-19 19:27 43.643959 -116.621850 133 7445ft 253kts
15-May-19 19:28 43.600808 -116.547689 132 7048ft 246kts
15-May-19 19:29 43.560301 -116.472658 118 7040ft 251kts
15-May-19 19:30 43.530998 -116.385334 117 6862ft 253kts
15-May-19 19:31 43.502119 -116.302273 111 6548ft 218kts
15-May-19 19:32 43.478105 -116.231687 111 6180ft 199kts
15-May-19 19:33 43.472871 -116.164454 70 5358ft 162kts
15-May-19 19:34 43.495865 -116.123911 13 4958ft 143kts
15-May-19 19:35 43.530825 -116.151990 319 4125ft 159kts
15-May-19 19:36 43.555278 -116.199800 299 3069ft 150kts
15-May-19 19:37 43.568442 -116.237786 296 2879ft 46kts
15-May-19 19:38 43.571034 -116.237460 87 2878ft 19kts
15-May-19 19:39 43.569129 -116.230090 115 2879ft 19kts
15-May-19 19:40 43.566418 -116.221662 70 2879ft 14kts
15-May-19 19:41 43.567187 -116.220750 23 2879ft 0kts

Navigation Log

Ident Type
Flight plan parsing failed, navigation log unavailable